Time;durP1;ratioP1;P1;durP2;ratioP2;P2;SDS_P1;SDS_P2;PMS_P1;PMS_P2;Temp;Humidity;BMP_temperature;BMP_pressure;BME280_temperature;BME280_humidity;BME280_pressure;Samples;Min_cycle;Max_cycle;Signal;HPM_P1;HPM_P2
2022/07/16 00:01:23;;;;;;;7.42;3.85;;;;;;;21.18;69.95;100621.23;1699558;82;20861;-91
2022/07/16 00:04:01;;;;;;;5.53;3.02;;;;;;;21.15;70.09;100618.41;1699436;83;20956;-91
2022/07/16 00:06:29;;;;;;;3.30;3.00;;;;;;;21.13;70.36;100608.90;1699426;79;21342;-90
2022/07/16 00:08:56;;;;;;;3.35;3.00;;;;;;;21.13;70.52;100606.23;1699498;84;21220;-90
2022/07/16 00:11:23;;;;;;;3.42;3.10;;;;;;;21.11;70.59;100608.55;1699344;84;21329;-91
2022/07/16 00:13:50;;;;;;;3.42;3.12;;;;;;;21.12;70.48;100612.04;1699438;84;20940;-90
2022/07/16 00:16:17;;;;;;;5.92;3.77;;;;;;;21.11;70.48;100613.05;1699179;84;20942;-90
2022/07/16 00:21:30;;;;;;;3.95;3.45;;;;;;;21.08;70.61;100608.05;1699611;84;21271;-90
2022/07/16 00:23:57;;;;;;;4.70;3.45;;;;;;;21.08;70.75;100612.05;1699230;84;20944;-91
2022/07/16 00:26:24;;;;;;;5.25;3.27;;;;;;;21.07;70.65;100607.70;1699481;84;21019;-89
2022/07/16 00:28:51;;;;;;;4.35;3.02;;;;;;;21.07;70.61;100609.03;1699410;83;21401;-90
2022/07/16 00:31:21;;;;;;;4.33;3.02;;;;;;;21.05;70.64;100613.18;1699577;83;20897;-89
2022/07/16 00:33:48;;;;;;;4.33;3.45;;;;;;;21.04;70.66;100610.19;1700960;84;21255;-89
2022/07/16 00:36:16;;;;;;;8.80;3.90;;;;;;;21.03;70.79;100615.67;1700009;84;20963;-89
2022/07/16 00:38:43;;;;;;;3.70;3.40;;;;;;;21.01;70.99;100620.33;1700761;84;21020;-91
2022/07/16 00:41:16;;;;;;;5.78;3.35;;;;;;;20.97;71.32;100627.00;1700928;84;20916;-92
2022/07/16 00:43:55;;;;;;;3.75;3.45;;;;;;;20.92;71.63;100623.48;1699927;84;20877;-90
2022/07/16 00:46:22;;;;;;;3.47;3.17;;;;;;;20.87;71.92;100624.44;1699710;82;21145;-90
2022/07/16 00:48:49;;;;;;;4.58;3.95;;;;;;;20.83;72.03;100629.74;1699667;83;20889;-91
2022/07/16 00:51:17;;;;;;;4.60;2.70;;;;;;;20.80;72.16;100629.56;1699522;83;21003;-91
2022/07/16 00:53:44;;;;;;;3.25;2.95;;;;;;;20.78;72.22;100634.22;1699485;84;21003;-91
2022/07/16 00:56:13;;;;;;;3.40;3.10;;;;;;;20.77;71.96;100635.23;1699630;84;20931;-90
2022/07/16 00:58:42;;;;;;;3.22;2.95;;;;;;;20.73;71.94;100629.87;1699394;82;21233;-90
2022/07/16 01:01:09;;;;;;;4.50;2.70;;;;;;;20.72;72.02;100628.69;1699534;83;20889;-91
2022/07/16 01:03:36;;;;;;;3.95;3.65;;;;;;;20.71;72.17;100627.86;1699487;82;21000;-89
2022/07/16 01:06:04;;;;;;;4.30;3.90;;;;;;;20.72;72.36;100630.88;1699319;79;21050;-91
2022/07/16 01:08:35;;;;;;;9.70;4.08;;;;;;;20.73;72.45;100633.86;1699419;83;20920;-90
2022/07/16 01:11:04;;;;;;;4.28;3.60;;;;;;;20.75;72.52;100633.22;1699341;83;21028;-91
2022/07/16 01:13:32;;;;;;;4.30;3.37;;;;;;;20.78;72.44;100637.39;1699398;84;20901;-89
2022/07/16 01:15:59;;;;;;;8.20;4.40;;;;;;;20.80;72.45;100628.73;1699780;83;20944;-89
2022/07/16 01:18:26;;;;;;;4.35;3.95;;;;;;;20.82;72.30;100633.41;1699744;82;21370;-91
2022/07/16 01:20:54;;;;;;;4.87;4.22;;;;;;;20.84;72.35;100635.42;1699507;84;21052;-91
2022/07/16 01:23:22;;;;;;;4.90;4.45;;;;;;;20.86;72.26;100641.44;1699183;84;21150;-91
2022/07/16 01:25:49;;;;;;;4.40;4.10;;;;;;;20.88;72.22;100647.45;1699724;79;20964;-91
2022/07/16 01:28:16;;;;;;;4.45;4.05;;;;;;;20.89;72.32;100643.78;1699538;82;20960;-90
2022/07/16 01:30:44;;;;;;;7.03;3.77;;;;;;;20.89;72.31;100647.77;1700757;84;21038;-89
2022/07/16 01:33:32;;;;;;;4.37;4.00;;;;;;;20.89;72.28;100653.11;1700978;84;21386;-90
2022/07/16 01:36:05;;;;;;;5.58;4.03;;;;;;;20.88;72.37;100650.95;1699644;83;21778;-90
2022/07/16 01:38:33;;;;;;;;;;;;;;;20.89;72.44;100655.77;1702117;84;20971;-90
2022/07/16 01:41:00;;;;;;;4.55;4.08;;;;;;;20.90;72.61;100657.46;1699538;82;20162;-91
2022/07/16 01:43:29;;;;;;;4.08;3.85;;;;;;;20.90;72.74;100657.46;1699247;84;20987;-90
2022/07/16 01:45:56;;;;;;;3.92;3.27;;;;;;;20.90;72.87;100659.62;1699344;84;20976;-90
2022/07/16 01:48:24;;;;;;;4.67;3.67;;;;;;;20.91;73.01;100661.78;1699608;83;21483;-91
2022/07/16 01:50:52;;;;;;;5.47;3.90;;;;;;;20.92;73.13;100662.14;1699405;84;20916;-91
2022/07/16 01:53:19;;;;;;;4.28;3.80;;;;;;;20.93;73.20;100665.64;1699623;83;20940;-90
2022/07/16 01:55:48;;;;;;;4.22;3.92;;;;;;;20.94;73.32;100668.63;1699456;84;20980;-91
2022/07/16 01:58:15;;;;;;;4.65;4.25;;;;;;;20.94;73.50;100669.95;1699640;84;20905;-91
2022/07/16 02:00:44;;;;;;;8.40;4.75;;;;;;;20.95;73.65;100672.48;1699389;84;21230;-91
2022/07/16 02:03:12;;;;;;;4.78;4.25;;;;;;;20.95;73.83;100672.98;1699161;84;20920;-90
2022/07/16 02:05:39;;;;;;;6.80;4.55;;;;;;;20.96;73.99;100674.64;1699351;83;20963;-90
2022/07/16 02:08:06;;;;;;;4.92;4.50;;;;;;;20.96;74.12;100674.13;1699350;84;20924;-90
2022/07/16 02:10:33;;;;;;;4.10;3.85;;;;;;;20.97;74.29;100674.99;1699682;83;20944;-89
2022/07/16 02:13:01;;;;;;;6.47;4.00;;;;;;;20.98;74.45;100672.65;1701764;83;21158;-90
2022/07/16 02:15:28;;;;;;;4.35;3.75;;;;;;;20.97;74.63;100673.16;1701377;79;20905;-91
2022/07/16 02:17:55;;;;;;;4.12;3.72;;;;;;;20.97;74.88;100669.66;1699650;84;21437;-91
2022/07/16 02:20:23;;;;;;;4.30;3.90;;;;;;;20.97;75.09;100670.99;1699783;84;20959;-90
2022/07/16 02:22:50;;;;;;;11.68;6.03;;;;;;;20.99;75.25;100675.67;1699591;83;20908;-90
2022/07/16 02:25:17;;;;;;;6.10;4.30;;;;;;;21.00;75.38;100674.16;1649393;84;21226;-90
2022/07/16 02:30:30;;;;;;;6.78;4.35;;;;;;;21.03;75.57;100677.86;1701055;84;20900;-88
2022/07/16 02:32:59;;;;;;;4.55;4.25;;;;;;;21.04;75.69;100678.19;1699563;84;21443;-91
2022/07/16 02:35:31;;;;;;;7.17;5.28;;;;;;;21.06;75.76;100680.20;1700129;82;20923;-90
2022/07/16 02:37:58;;;;;;;5.60;4.75;;;;;;;21.07;75.88;100685.03;1699631;84;21469;-90
2022/07/16 02:40:28;;;;;;;5.45;4.95;;;;;;;21.08;75.94;100680.87;1699525;83;21434;-90
2022/07/16 02:42:55;;;;;;;5.30;4.90;;;;;;;21.10;76.04;100687.39;1699747;84;21011;-90
2022/07/16 02:45:22;;;;;;;4.95;4.50;;;;;;;21.10;76.12;100682.06;1699873;84;20976;-90
2022/07/16 02:47:49;;;;;;;5.28;4.85;;;;;;;21.11;76.18;100680.55;1699864;84;20920;-90
2022/07/16 02:50:16;;;;;;;5.58;5.12;;;;;;;21.11;76.30;100679.22;1699436;84;22356;-91
2022/07/16 02:52:44;;;;;;;6.12;5.22;;;;;;;21.13;76.41;100684.91;1699339;84;20964;-91
2022/07/16 02:55:12;;;;;;;5.45;4.92;;;;;;;21.14;76.50;100686.05;1699450;83;21413;-91
2022/07/16 02:57:39;;;;;;;5.92;5.20;;;;;;;21.15;76.62;100693.58;1699416;84;20948;-91
2022/07/16 03:00:08;;;;;;;5.17;4.42;;;;;;;21.16;76.70;100689.91;1699444;84;20944;-90
2022/07/16 03:02:35;;;;;;;5.53;4.70;;;;;;;21.15;76.79;100690.92;1699448;83;21107;-90
2022/07/16 03:05:03;;;;;;;5.80;5.25;;;;;;;21.17;76.91;100688.93;1699863;83;21042;-91
2022/07/16 03:07:31;;;;;;;5.45;5.05;;;;;;;21.18;76.97;100694.59;1701411;84;20920;-92
2022/07/16 03:09:58;;;;;;;5.90;5.45;;;;;;;21.18;77.05;100692.75;1701848;82;20940;-88
2022/07/16 03:12:27;;;;;;;5.53;5.03;;;;;;;21.18;77.15;100694.59;1701992;79;20992;-89
2022/07/16 03:14:54;;;;;;;5.50;5.10;;;;;;;21.19;77.27;100698.91;1701709;79;21188;-90
2022/07/16 03:17:22;;;;;;;5.08;4.35;;;;;;;21.21;77.38;100699.59;1700362;83;20948;-90
2022/07/16 03:19:48;;;;;;;5.30;4.80;;;;;;;21.20;77.51;100697.93;1699795;83;20979;-90
2022/07/16 03:22:17;;;;;;;6.47;4.92;;;;;;;21.20;77.74;100701.94;1699695;84;20921;-90
2022/07/16 03:24:44;;;;;;;5.20;4.75;;;;;;;21.19;77.80;100702.44;1701366;84;20940;-89
2022/07/16 03:27:14;;;;;;;6.20;5.33;;;;;;;21.21;77.93;100707.59;1701800;83;20890;-88
2022/07/16 03:29:41;;;;;;;6.85;5.35;;;;;;;21.23;78.02;100706.94;1699859;84;20952;-89
2022/07/16 03:32:08;;;;;;;6.05;5.65;;;;;;;21.23;78.14;100703.80;1699449;79;20932;-90
2022/07/16 03:34:36;;;;;;;5.25;4.85;;;;;;;21.23;78.38;100714.47;1699297;82;21655;-90
2022/07/16 03:37:03;;;;;;;6.65;5.62;;;;;;;21.24;78.49;100712.13;1699340;83;20943;-89
2022/07/16 03:39:31;;;;;;;6.75;5.55;;;;;;;21.27;78.54;100716.30;1699332;83;21248;-89
2022/07/16 03:41:58;;;;;;;5.85;5.37;;;;;;;21.28;78.55;100724.66;1699970;84;20905;-89
2022/07/16 03:44:24;;;;;;;7.05;6.45;;;;;;;21.28;78.58;100709.48;1700894;84;21022;-90
2022/07/16 03:46:51;;;;;;;5.62;5.12;;;;;;;21.28;78.64;100722.81;1701650;84;20924;-89
2022/07/16 03:49:18;;;;;;;5.95;5.45;;;;;;;21.30;78.70;100720.00;1702031;82;20905;-90
2022/07/16 03:51:45;;;;;;;5.53;5.08;;;;;;;21.30;78.79;100719.50;1701157;84;21190;-90
2022/07/16 03:54:12;;;;;;;5.70;5.30;;;;;;;21.31;78.85;100726.99;1699939;84;20916;-89
2022/07/16 03:56:39;;;;;;;5.53;5.05;;;;;;;21.31;78.85;100726.48;1699536;84;20916;-91
2022/07/16 03:59:06;;;;;;;6.30;5.80;;;;;;;21.32;78.88;100731.31;1699770;84;21012;-90
2022/07/16 04:01:33;;;;;;;6.45;5.95;;;;;;;21.33;78.93;100733.01;1699611;83;21410;-92
2022/07/16 04:04:02;;;;;;;7.15;6.62;;;;;;;21.35;79.05;100736.36;1699523;84;20912;-93
2022/07/16 04:06:29;;;;;;;7.35;6.75;;;;;;;21.35;79.00;100736.36;1693006;83;21418;-92
2022/07/16 04:08:56;;;;;;;8.13;7.12;;;;;;;21.37;79.12;100744.21;1689189;85;20960;-91
2022/07/16 04:11:23;;;;;;;7.10;6.50;;;;;;;21.37;79.26;100744.21;1689168;81;20873;-91
2022/07/16 04:13:51;;;;;;;7.20;6.53;;;;;;;21.35;79.38;100740.36;1689187;85;20924;-92
2022/07/16 04:16:19;;;;;;;7.05;6.45;;;;;;;21.33;79.49;100739.17;1689327;85;21798;-92
2022/07/16 04:20:20;;;;;;;6.87;6.37;;;;;;;21.40;79.69;100746.55;1856045;76;22634;-90
2022/07/16 04:22:46;;;;;;;6.47;5.97;;;;;;;21.36;79.72;100755.35;1824995;78;20899;-89
2022/07/16 04:25:13;;;;;;;7.35;6.75;;;;;;;21.37;79.74;100758.88;1824466;78;21166;-90
2022/07/16 04:27:41;;;;;;;7.00;6.40;;;;;;;21.36;79.84;100754.02;1823380;78;20896;-91
2022/07/16 04:30:10;;;;;;;8.53;7.58;;;;;;;21.37;79.90;100763.72;1823432;78;20919;-92
2022/07/16 04:32:39;;;;;;;8.35;7.55;;;;;;;21.37;80.00;100763.72;1823131;78;20966;-92
2022/07/16 04:35:08;;;;;;;8.53;7.58;;;;;;;21.38;80.01;100768.55;1822942;78;20938;-91
2022/07/16 04:37:35;;;;;;;8.00;7.35;;;;;;;21.38;80.10;100775.22;1823052;78;21143;-91
2022/07/16 04:40:04;;;;;;;8.55;7.95;;;;;;;21.38;80.20;100780.55;1823233;78;20878;-92
2022/07/16 04:42:31;;;;;;;8.13;7.45;;;;;;;21.32;80.38;100777.53;1823522;78;20911;-91
2022/07/16 04:44:58;;;;;;;9.35;8.55;;;;;;;21.30;80.52;100773.35;1822993;78;21405;-92
2022/07/16 04:47:26;;;;;;;10.20;9.40;;;;;;;21.27;80.66;100782.48;1822923;78;20986;-91
2022/07/16 04:49:53;;;;;;;9.43;8.68;;;;;;;21.28;80.81;100786.01;1822990;78;21358;-92
2022/07/16 04:52:20;;;;;;;11.10;9.98;;;;;;;21.28;80.97;100792.68;1822849;78;20923;-91
2022/07/16 04:54:47;;;;;;;11.60;10.38;;;;;;;21.26;81.22;100793.33;1822834;78;20880;-89
2022/07/16 04:57:15;;;;;;;11.43;10.25;;;;;;;21.23;81.55;100791.82;1822798;78;21152;-89
2022/07/16 04:59:42;;;;;;;11.97;10.98;;;;;;;21.23;81.85;100784.29;1823116;78;20867;-89
2022/07/16 05:04:54;;;;;;;12.18;10.98;;;;;;;21.21;82.47;100792.47;1822840;78;20907;-89
2022/07/16 05:07:23;;;;;;;13.45;12.35;;;;;;;21.20;82.67;100792.63;1822802;78;20844;-89
2022/07/16 05:09:51;;;;;;;13.40;12.37;;;;;;;21.19;83.00;100786.45;1823094;78;21001;-88
2022/07/16 05:12:18;;;;;;;13.58;12.37;;;;;;;21.21;83.15;100790.28;1823349;78;21459;-89
2022/07/16 05:14:45;;;;;;;12.55;11.57;;;;;;;21.22;83.31;100787.46;1823181;78;21227;-88
2022/07/16 05:17:14;;;;;;;13.28;12.18;;;;;;;21.25;83.27;100790.30;1822886;78;20911;-88
2022/07/16 05:19:41;;;;;;;14.00;13.00;;;;;;;21.26;83.22;100788.00;1823810;78;20868;-88
2022/07/16 05:22:08;;;;;;;14.60;13.03;;;;;;;21.28;83.14;100790.02;1823304;78;20990;-88
2022/07/16 05:24:36;;;;;;;13.32;12.30;;;;;;;21.29;83.13;100794.34;1822907;78;20864;-89
2022/07/16 05:27:04;;;;;;;16.65;15.32;;;;;;;21.29;83.16;100802.34;1823434;78;21247;-89
2022/07/16 05:29:31;;;;;;;17.17;15.65;;;;;;;21.27;83.26;100798.48;1822566;78;20864;-89
2022/07/16 05:31:58;;;;;;;18.23;16.62;;;;;;;21.27;83.28;100797.16;1822263;78;20876;-89
2022/07/16 05:34:25;;;;;;;18.87;17.15;;;;;;;21.25;83.04;100791.64;1822284;78;20836;-89
2022/07/16 05:36:52;;;;;;;22.15;18.45;;;;;;;21.24;83.14;100800.15;1822228;78;20915;-90
2022/07/16 05:39:19;;;;;;;18.12;16.67;;;;;;;21.23;83.14;100801.16;1822462;78;21187;-90
2022/07/16 05:41:46;;;;;;;18.95;17.35;;;;;;;21.22;83.23;100800.80;1822191;78;20923;-89
2022/07/16 05:44:14;;;;;;;19.37;17.77;;;;;;;21.24;83.42;100799.31;1824072;78;20927;-89
2022/07/16 05:46:40;;;;;;;19.10;17.40;;;;;;;21.27;83.42;100800.33;1824719;78;20887;-89
2022/07/16 05:49:08;;;;;;;20.48;18.77;;;;;;;21.29;83.41;100797.01;1822825;78;21459;-90
2022/07/16 05:51:35;;;;;;;19.62;17.87;;;;;;;21.28;83.07;100788.67;1822296;78;21306;-90
2022/07/16 05:54:02;;;;;;;19.77;18.07;;;;;;;21.26;82.85;100783.48;1822203;78;20895;-90
2022/07/16 05:56:29;;;;;;;19.25;17.62;;;;;;;21.24;82.73;100785.98;1822217;78;20876;-89
2022/07/16 05:59:01;;;;;;;18.95;17.45;;;;;;;21.23;82.91;100790.48;1822736;78;20955;-90
2022/07/16 06:01:24;;;;;;;20.27;18.57;;;;;;;21.24;83.01;100792.14;1822252;78;20864;-88
2022/07/16 06:03:52;;;;;;;21.10;18.17;;;;;;;21.23;82.98;100798.48;1824697;77;21133;-89
2022/07/16 06:06:19;;;;;;;19.32;17.50;;;;;;;21.23;82.91;100792.30;1824843;78;20895;-89
2022/07/16 06:08:46;;;;;;;22.50;18.92;;;;;;;21.22;82.66;100795.46;1825027;78;20886;-89
2022/07/16 06:11:13;;;;;;;19.92;18.05;;;;;;;21.23;82.64;100797.62;1824715;78;20785;-89
2022/07/16 06:13:41;;;;;;;20.30;18.67;;;;;;;21.23;82.63;100795.82;1824731;78;20852;-91
2022/07/16 06:16:09;;;;;;;20.32;18.52;;;;;;;21.23;82.52;100796.30;1824576;77;21283;-90
2022/07/16 06:21:24;;;;;;;21.65;19.73;;;;;;;21.23;82.36;100789.63;1892225;74;22190;-89
2022/07/16 06:23:51;;;;;;;21.20;19.50;;;;;;;21.20;82.48;100796.63;1853055;77;20919;-89
2022/07/16 06:26:19;;;;;;;20.62;18.80;;;;;;;21.21;82.41;100805.81;1853298;77;21230;-90
2022/07/16 06:28:46;;;;;;;21.20;19.40;;;;;;;21.21;82.30;100802.28;1853014;77;20927;-89
2022/07/16 06:31:13;;;;;;;21.33;19.32;;;;;;;21.19;82.24;100801.12;1853475;77;20935;-90
2022/07/16 06:33:40;;;;;;;21.30;19.37;;;;;;;21.20;82.57;100795.28;1852154;77;21033;-90
2022/07/16 06:36:07;;;;;;;19.95;18.27;;;;;;;21.22;82.50;100787.46;1852857;77;20849;-89
2022/07/16 06:38:34;;;;;;;21.00;19.30;;;;;;;21.30;82.42;100792.03;1853094;77;21133;-89
2022/07/16 06:41:01;;;;;;;20.45;18.45;;;;;;;21.32;82.33;100786.01;1852805;77;20927;-89
2022/07/16 06:43:28;;;;;;;20.80;19.05;;;;;;;21.38;82.40;100795.22;1853603;77;20856;-90
2022/07/16 06:45:56;;;;;;;21.70;20.00;;;;;;;21.42;82.13;100796.63;1853579;77;20884;-90
2022/07/16 06:48:23;;;;;;;21.00;19.20;;;;;;;21.42;82.15;100798.78;1853400;77;21108;-88
2022/07/16 06:50:50;;;;;;;21.48;19.37;;;;;;;21.42;81.84;100797.45;1853209;77;21020;-89
2022/07/16 06:53:16;;;;;;;21.55;19.73;;;;;;;21.43;81.82;100794.27;1853090;77;20864;-90
2022/07/16 06:55:43;;;;;;;21.57;19.73;;;;;;;21.40;81.68;100798.58;1853195;77;20927;-90
2022/07/16 06:58:11;;;;;;;21.97;20.08;;;;;;;21.37;81.58;100791.73;1852507;77;20903;-88
2022/07/16 07:00:38;;;;;;;22.20;20.05;;;;;;;21.33;81.63;100798.37;1851881;77;20833;-89
2022/07/16 07:03:05;;;;;;;21.12;19.27;;;;;;;21.30;81.79;100802.19;1851060;77;21228;-90
2022/07/16 07:05:33;;;;;;;21.82;19.92;;;;;;;21.30;81.94;100801.36;1850921;77;20911;-89
2022/07/16 07:08:00;;;;;;;20.70;19.10;;;;;;;21.31;82.04;100808.36;1850897;77;20915;-89
2022/07/16 07:10:28;;;;;;;20.97;19.27;;;;;;;21.31;82.25;100813.19;1851159;77;21003;-89
2022/07/16 07:12:55;;;;;;;20.30;18.50;;;;;;;21.31;82.35;100815.03;1851778;77;21357;-89
2022/07/16 07:15:23;;;;;;;19.98;18.27;;;;;;;21.31;82.80;100810.52;1852073;77;21135;-88
2022/07/16 07:17:51;;;;;;;20.32;18.42;;;;;;;21.33;82.88;100811.20;1851850;77;20900;-89
2022/07/16 07:20:18;;;;;;;20.12;18.55;;;;;;;21.36;82.81;100817.22;1852733;77;20841;-90
2022/07/16 07:22:46;;;;;;;20.90;19.07;;;;;;;21.39;82.90;100815.56;1826311;77;20927;-88
2022/07/16 07:25:13;;;;;;;20.55;18.60;;;;;;;21.42;82.88;100825.47;1854456;77;20918;-90
2022/07/16 07:27:41;;;;;;;18.95;17.27;;;;;;;21.44;82.89;100822.65;1854450;77;21231;-89
2022/07/16 07:30:11;;;;;;;19.87;17.85;;;;;;;21.44;82.58;100824.81;1854206;77;20860;-89
2022/07/16 07:32:38;;;;;;;17.77;16.27;;;;;;;21.46;82.58;100828.66;1854105;77;20859;-89
2022/07/16 07:35:06;;;;;;;18.07;16.50;;;;;;;21.48;82.72;100837.35;1853770;77;20880;-90
2022/07/16 07:37:34;;;;;;;19.70;15.90;;;;;;;21.47;82.86;100831.16;1854373;77;20833;-90
2022/07/16 07:40:07;;;;;;;18.95;17.25;;;;;;;21.48;83.01;100834.69;1854626;76;21255;-90
2022/07/16 07:42:35;;;;;;;18.35;16.80;;;;;;;21.48;83.02;100830.18;1854898;76;20912;-89
2022/07/16 07:45:03;;;;;;;17.57;16.17;;;;;;;21.53;82.91;100832.37;1854323;77;20961;-89
2022/07/16 07:47:31;;;;;;;17.55;16.05;;;;;;;21.59;82.66;100836.22;1853937;77;20989;-89
2022/07/16 07:49:59;;;;;;;18.60;17.00;;;;;;;21.64;82.63;100828.59;1854395;77;20895;-89
2022/07/16 07:52:26;;;;;;;16.85;15.30;;;;;;;21.71;82.46;100826.95;1853788;77;21140;-89
2022/07/16 07:54:52;;;;;;;17.30;15.83;;;;;;;21.77;81.93;100826.32;1853549;77;20908;-89
2022/07/16 07:57:19;;;;;;;17.87;16.25;;;;;;;21.85;81.32;100834.34;1853749;76;20801;-90
2022/07/16 07:59:47;;;;;;;55.73;50.67;;;;;;;21.92;80.96;100829.20;1853965;77;20868;-88
2022/07/16 08:02:13;;;;;;;20.65;17.62;;;;;;;21.98;80.29;100830.41;1853844;77;21420;-88
2022/07/16 08:04:40;;;;;;;15.40;14.00;;;;;;;22.06;80.19;100837.13;1853422;77;21198;-89
2022/07/16 08:07:09;;;;;;;24.55;22.22;;;;;;;22.16;79.96;100839.14;1853885;77;20935;-89
2022/07/16 08:09:36;;;;;;;20.43;18.45;;;;;;;22.27;79.66;100840.70;1854418;77;20914;-87
2022/07/16 08:12:03;;;;;;;18.05;16.42;;;;;;;22.39;79.13;100838.08;1855076;77;20884;-87
2022/07/16 08:14:30;;;;;;;18.80;16.67;;;;;;;22.52;78.48;100836.24;1854159;77;20919;-90
2022/07/16 08:16:58;;;;;;;18.67;16.77;;;;;;;22.62;77.77;100837.44;1853682;77;21281;-89
2022/07/16 08:19:25;;;;;;;15.72;14.30;;;;;;;22.66;76.93;100833.44;1853607;77;21361;-89
2022/07/16 08:21:52;;;;;;;15.20;13.98;;;;;;;22.69;76.44;100826.41;1850280;77;20927;-89
2022/07/16 08:27:05;;;;;;;16.07;14.75;;;;;;;22.81;75.65;100831.78;1851667;77;20895;-90
2022/07/16 08:29:33;;;;;;;16.25;14.68;;;;;;;22.83;75.25;100830.25;1853185;77;21219;-88
2022/07/16 08:32:00;;;;;;;15.35;13.88;;;;;;;22.85;74.70;100830.92;1852601;77;20951;-91
2022/07/16 08:34:27;;;;;;;15.20;13.90;;;;;;;22.81;74.42;100835.80;1851922;77;20876;-90
2022/07/16 08:36:54;;;;;;;15.35;14.00;;;;;;;22.78;74.41;100829.42;1851170;77;20884;-90
2022/07/16 08:39:23;;;;;;;13.83;12.75;;;;;;;22.76;74.41;100834.92;1852015;77;20914;-89
2022/07/16 08:41:50;;;;;;;15.30;13.90;;;;;;;22.78;74.31;100841.96;1853189;77;21483;-91
2022/07/16 08:44:17;;;;;;;14.20;13.05;;;;;;;22.79;74.11;100839.61;1852524;77;20837;-91
2022/07/16 08:46:44;;;;;;;14.95;13.68;;;;;;;22.78;73.74;100836.11;1851470;77;20880;-90
2022/07/16 08:49:12;;;;;;;14.33;13.10;;;;;;;22.79;73.92;100832.45;1851199;77;20880;-91
2022/07/16 08:51:39;;;;;;;15.03;13.72;;;;;;;22.82;73.77;100832.61;1851512;77;20907;-90
2022/07/16 08:54:17;;;;;;;13.95;12.80;;;;;;;22.87;74.06;100831.09;1851643;77;21087;-90
2022/07/16 08:56:45;;;;;;;15.13;13.65;;;;;;;22.94;73.92;100840.62;1850848;77;20955;-90
2022/07/16 08:59:13;;;;;;;14.35;13.22;;;;;;;22.97;73.30;100842.98;1850732;77;20939;-90
2022/07/16 09:01:40;;;;;;;14.58;13.28;;;;;;;22.97;73.06;100839.80;1850810;77;20869;-90
2022/07/16 09:04:07;;;;;;;15.75;14.43;;;;;;;23.01;73.14;100838.14;1853040;77;21393;-91
2022/07/16 09:06:34;;;;;;;18.57;16.07;;;;;;;23.01;73.43;100830.97;1852252;77;21253;-89
2022/07/16 09:09:01;;;;;;;14.23;12.93;;;;;;;23.01;73.32;100832.31;1851641;77;20994;-88
2022/07/16 09:11:31;;;;;;;15.63;13.32;;;;;;;23.04;73.40;100826.61;1850711;77;20880;-90
2022/07/16 09:14:11;;;;;;;15.10;13.70;;;;;;;23.07;73.53;100822.77;1851579;77;20849;-86
2022/07/16 09:16:50;;;;;;;14.43;13.13;;;;;;;23.11;73.38;100824.92;1853344;77;20982;-90
2022/07/16 09:19:20;;;;;;;13.65;12.45;;;;;;;23.13;72.83;100818.08;1852512;77;21206;-89
2022/07/16 09:22:02;;;;;;;14.55;12.23;;;;;;;23.14;72.33;100815.25;1852932;77;20908;-91
2022/07/16 09:24:47;;;;;;;14.13;12.93;;;;;;;23.14;72.30;100814.38;1852259;77;20931;-92
2022/07/16 09:27:23;;;;;;;14.65;13.35;;;;;;;23.14;72.39;100818.40;1852932;77;20899;-92
2022/07/16 09:29:58;;;;;;;14.95;13.48;;;;;;;23.16;72.38;100817.73;1852838;77;20900;-91
2022/07/16 09:32:36;;;;;;;14.63;13.40;;;;;;;23.14;72.23;100824.61;1853340;77;21392;-89
2022/07/16 09:35:09;;;;;;;14.07;12.88;;;;;;;23.11;72.20;100823.59;1852970;77;20907;-90
2022/07/16 09:37:57;;;;;;;13.98;12.78;;;;;;;23.10;72.33;100811.23;1852572;77;20915;-91
2022/07/16 09:40:38;;;;;;;15.03;13.70;;;;;;;23.09;72.19;100816.74;1852478;77;20931;-90
2022/07/16 09:43:17;;;;;;;14.63;13.32;;;;;;;23.08;71.90;100815.91;1852996;77;20916;-90
2022/07/16 09:45:51;;;;;;;15.00;13.60;;;;;;;23.08;71.85;100805.21;1852767;77;21132;-88
2022/07/16 09:48:24;;;;;;;14.68;13.28;;;;;;;23.10;71.89;100810.37;1851564;77;20864;-89
2022/07/16 09:50:52;;;;;;;13.78;12.47;;;;;;;23.12;71.79;100811.04;1852270;77;20935;-90
2022/07/16 09:53:23;;;;;;;16.73;15.13;;;;;;;23.16;71.74;100803.84;1852785;77;20872;-90
2022/07/16 09:56:08;;;;;;;17.30;15.63;;;;;;;23.26;72.17;100800.17;1852028;77;21613;-90
2022/07/16 09:58:36;;;;;;;19.98;17.90;;;;;;;23.48;72.09;100804.80;1816103;79;21552;-91
2022/07/16 10:01:04;;;;;;;24.57;22.00;;;;;;;23.84;71.54;100803.01;1789511;79;20986;-89
2022/07/16 10:03:32;;;;;;;20.77;15.32;;;;;;;24.26;70.51;100793.74;1816359;79;20971;-91
2022/07/16 10:05:59;;;;;;;20.17;18.27;;;;;;;24.70;69.41;100800.31;1816519;79;20919;-90
2022/07/16 10:08:26;;;;;;;17.65;15.95;;;;;;;25.10;68.01;100795.59;1816545;79;20978;-92
2022/07/16 10:10:54;;;;;;;19.10;17.27;;;;;;;25.39;67.17;100797.48;1816062;79;21237;-91
2022/07/16 10:13:26;;;;;;;20.82;18.62;;;;;;;25.57;65.81;100791.77;1816161;79;21018;-90
2022/07/16 10:15:53;;;;;;;21.40;17.77;;;;;;;25.68;64.23;100796.67;1814085;79;20911;-90
2022/07/16 10:18:45;;;;;;;18.60;16.90;;;;;;;25.72;63.55;100796.59;1814447;79;20841;-91
2022/07/16 10:21:19;;;;;;;20.62;18.48;;;;;;;25.76;63.91;100795.72;1813571;78;20936;-90
2022/07/16 10:23:50;;;;;;;22.05;19.77;;;;;;;26.22;63.67;100795.47;1814527;78;21086;-92
2022/07/16 10:26:21;;;;;;;19.02;17.15;;;;;;;26.46;62.03;100795.62;1808686;78;20990;-91
2022/07/16 10:28:52;;;;;;;19.98;18.07;;;;;;;26.63;61.04;100799.71;1813454;79;20892;-90
2022/07/16 10:34:37;;;;;;;16.95;15.25;;;;;;;26.80;59.22;100794.08;1832883;77;21009;-92
2022/07/16 10:37:08;;;;;;;15.98;14.50;;;;;;;27.14;58.17;100793.80;1850068;77;21139;-90
2022/07/16 10:39:37;;;;;;;14.60;13.25;;;;;;;27.24;57.30;100789.77;1849821;77;20915;-92
2022/07/16 10:42:06;;;;;;;17.07;15.30;;;;;;;27.46;57.05;100790.52;1850065;77;20907;-90
2022/07/16 10:44:50;;;;;;;15.15;13.75;;;;;;;27.72;56.52;100787.62;1850118;77;21370;-91
2022/07/16 10:47:18;;;;;;;15.40;13.90;;;;;;;28.06;56.16;100783.23;1850193;77;20899;-91
2022/07/16 10:49:45;;;;;;;18.50;16.85;;;;;;;28.30;55.14;100788.55;1850241;77;21188;-91
2022/07/16 10:52:15;;;;;;;29.65;27.10;;;;;;;28.36;53.66;100783.70;1850247;77;20954;-92
2022/07/16 10:54:55;;;;;;;13.60;12.53;;;;;;;28.58;53.53;100781.67;1850336;77;21365;-90
2022/07/16 10:57:40;;;;;;;13.43;12.13;;;;;;;28.82;53.36;100782.10;1849558;77;21520;-92
2022/07/16 11:00:08;;;;;;;12.50;11.22;;;;;;;29.04;52.78;100781.36;1850867;77;20931;-89
2022/07/16 11:02:40;;;;;;;12.40;11.40;;;;;;;29.36;51.97;100781.52;1852053;77;22520;-91
2022/07/16 11:05:09;;;;;;;13.38;12.20;;;;;;;29.62;51.31;100773.86;1851274;77;28175;-90
2022/07/16 11:07:36;;;;;;;15.60;14.13;;;;;;;29.91;50.74;100770.62;1850494;77;20828;-90
2022/07/16 11:10:04;;;;;;;16.17;14.30;;;;;;;30.26;49.93;100782.39;1850712;77;21408;-91
2022/07/16 11:12:36;;;;;;;13.38;12.28;;;;;;;30.51;48.57;100778.38;1850187;77;20931;-90
2022/07/16 11:15:03;;;;;;;12.18;11.08;;;;;;;30.74;48.02;100778.30;1850284;77;21100;-94
2022/07/16 11:17:30;;;;;;;13.88;12.78;;;;;;;30.91;48.43;100782.13;1850368;77;20832;-90
2022/07/16 11:20:00;;;;;;;12.03;10.88;;;;;;;30.96;47.45;100783.64;1851716;77;20892;-90
2022/07/16 11:22:29;;;;;;;13.50;12.30;;;;;;;30.89;47.24;100780.70;1854446;77;20915;-92
2022/07/16 11:25:02;;;;;;;13.35;12.15;;;;;;;30.94;46.94;100772.73;1854555;77;20864;-91
2022/07/16 11:27:34;;;;;;;;;;;;;;;30.96;46.30;100771.98;1857757;77;21223;-90
2022/07/16 11:30:05;;;;;;;12.63;11.63;;;;;;;30.96;46.48;100774.16;1856231;77;20122;-91
2022/07/16 11:32:32;;;;;;;13.08;11.93;;;;;;;30.95;46.55;100768.45;1856217;76;20927;-91
2022/07/16 11:35:06;;;;;;;13.53;12.47;;;;;;;30.97;46.78;100776.34;1856502;77;20895;-86
2022/07/16 11:37:55;;;;;;;11.60;10.50;;;;;;;30.84;46.15;100775.92;1855229;77;20880;-90
2022/07/16 11:40:33;;;;;;;12.03;11.00;;;;;;;30.59;46.42;100770.50;1853798;77;21102;-92
2022/07/16 11:43:00;;;;;;;13.08;11.88;;;;;;;30.49;47.42;100775.59;1851928;77;21384;-91